sensor_id;sensor_type;location;lat;lon;timestamp;P1;durP1;ratioP1;P2;durP2;ratioP2
40755;SDS011;26461;45.630;9.418;2023-02-20T00:02:03;72.28;;;32.25;;
40755;SDS011;26461;45.630;9.418;2023-02-20T00:05:10;58.88;;;36.30;;
40755;SDS011;26461;45.630;9.418;2023-02-20T00:08:21;65.82;;;35.22;;
40755;SDS011;26461;45.630;9.418;2023-02-20T00:11:31;61.00;;;33.13;;
40755;SDS011;26461;45.630;9.418;2023-02-20T00:14:41;54.55;;;34.35;;
40755;SDS011;26461;45.630;9.418;2023-02-20T00:17:51;56.75;;;37.53;;
40755;SDS011;26461;45.630;9.418;2023-02-20T00:21:01;50.78;;;34.97;;
40755;SDS011;26461;45.630;9.418;2023-02-20T00:24:05;71.38;;;36.28;;
40755;SDS011;26461;45.630;9.418;2023-02-20T00:27:11;52.55;;;30.88;;
40755;SDS011;26461;45.630;9.418;2023-02-20T00:30:20;49.95;;;31.52;;
40755;SDS011;26461;45.630;9.418;2023-02-20T00:33:32;62.13;;;37.20;;
40755;SDS011;26461;45.630;9.418;2023-02-20T00:36:42;83.10;;;36.78;;
40755;SDS011;26461;45.630;9.418;2023-02-20T00:39:51;60.90;;;32.47;;
40755;SDS011;26461;45.630;9.418;2023-02-20T00:43:01;48.10;;;28.63;;
40755;SDS011;26461;45.630;9.418;2023-02-20T00:46:12;77.30;;;34.60;;
40755;SDS011;26461;45.630;9.418;2023-02-20T00:49:22;53.90;;;32.30;;
40755;SDS011;26461;45.630;9.418;2023-02-20T00:52:44;73.95;;;35.22;;
40755;SDS011;26461;45.630;9.418;2023-02-20T00:55:54;69.47;;;35.97;;
40755;SDS011;26461;45.630;9.418;2023-02-20T00:59:04;58.55;;;35.35;;
40755;SDS011;26461;45.630;9.418;2023-02-20T01:02:14;60.55;;;33.53;;
40755;SDS011;26461;45.630;9.418;2023-02-20T01:05:25;86.57;;;39.08;;
40755;SDS011;26461;45.630;9.418;2023-02-20T01:08:35;64.43;;;34.47;;
40755;SDS011;26461;45.630;9.418;2023-02-20T01:11:45;51.13;;;32.75;;
40755;SDS011;26461;45.630;9.418;2023-02-20T01:14:55;74.90;;;37.47;;
40755;SDS011;26461;45.630;9.418;2023-02-20T01:18:05;62.83;;;30.65;;
40755;SDS011;26461;45.630;9.418;2023-02-20T01:21:15;56.53;;;32.90;;
40755;SDS011;26461;45.630;9.418;2023-02-20T01:24:25;54.42;;;28.67;;
40755;SDS011;26461;45.630;9.418;2023-02-20T01:27:35;41.90;;;28.90;;
40755;SDS011;26461;45.630;9.418;2023-02-20T01:30:45;63.65;;;34.38;;
40755;SDS011;26461;45.630;9.418;2023-02-20T01:33:55;55.58;;;32.30;;
40755;SDS011;26461;45.630;9.418;2023-02-20T01:36:59;53.70;;;32.70;;
40755;SDS011;26461;45.630;9.418;2023-02-20T01:40:14;65.70;;;31.40;;
40755;SDS011;26461;45.630;9.418;2023-02-20T01:43:25;51.85;;;32.15;;
40755;SDS011;26461;45.630;9.418;2023-02-20T01:49:49;61.58;;;34.05;;
40755;SDS011;26461;45.630;9.418;2023-02-20T01:53:07;43.45;;;29.45;;
40755;SDS011;26461;45.630;9.418;2023-02-20T01:56:20;51.25;;;29.67;;
40755;SDS011;26461;45.630;9.418;2023-02-20T01:59:31;68.40;;;30.02;;
40755;SDS011;26461;45.630;9.418;2023-02-20T02:02:47;68.43;;;28.67;;
40755;SDS011;26461;45.630;9.418;2023-02-20T02:06:18;66.10;;;31.52;;
40755;SDS011;26461;45.630;9.418;2023-02-20T02:13:14;49.05;;;33.55;;
40755;SDS011;26461;45.630;9.418;2023-02-20T02:27:16;62.38;;;38.83;;
40755;SDS011;26461;45.630;9.418;2023-02-20T02:41:06;64.28;;;38.67;;
40755;SDS011;26461;45.630;9.418;2023-02-20T02:44:41;74.55;;;35.90;;
40755;SDS011;26461;45.630;9.418;2023-02-20T02:47:54;77.93;;;37.75;;
40755;SDS011;26461;45.630;9.418;2023-02-20T02:51:13;76.00;;;38.08;;
40755;SDS011;26461;45.630;9.418;2023-02-20T02:54:27;67.18;;;37.85;;
40755;SDS011;26461;45.630;9.418;2023-02-20T02:57:32;78.88;;;39.13;;
40755;SDS011;26461;45.630;9.418;2023-02-20T03:04:05;68.22;;;35.90;;
40755;SDS011;26461;45.630;9.418;2023-02-20T03:07:19;56.90;;;38.85;;
40755;SDS011;26461;45.630;9.418;2023-02-20T03:10:29;57.55;;;36.33;;
40755;SDS011;26461;45.630;9.418;2023-02-20T03:13:43;73.72;;;37.70;;
40755;SDS011;26461;45.630;9.418;2023-02-20T03:17:28;66.53;;;36.28;;
40755;SDS011;26461;45.630;9.418;2023-02-20T03:24:26;73.70;;;37.63;;
40755;SDS011;26461;45.630;9.418;2023-02-20T03:27:45;51.80;;;33.75;;
40755;SDS011;26461;45.630;9.418;2023-02-20T03:34:09;58.08;;;30.85;;
40755;SDS011;26461;45.630;9.418;2023-02-20T03:37:42;72.35;;;37.70;;
40755;SDS011;26461;45.630;9.418;2023-02-20T03:41:12;81.78;;;36.35;;
40755;SDS011;26461;45.630;9.418;2023-02-20T03:44:42;62.85;;;40.03;;
40755;SDS011;26461;45.630;9.418;2023-02-20T03:47:54;69.63;;;36.00;;
40755;SDS011;26461;45.630;9.418;2023-02-20T03:51:09;76.60;;;37.05;;
40755;SDS011;26461;45.630;9.418;2023-02-20T03:54:27;54.97;;;32.72;;
40755;SDS011;26461;45.630;9.418;2023-02-20T03:57:39;68.45;;;36.50;;
40755;SDS011;26461;45.630;9.418;2023-02-20T04:00:54;82.03;;;36.38;;
40755;SDS011;26461;45.630;9.418;2023-02-20T04:04:10;57.00;;;34.63;;
40755;SDS011;26461;45.630;9.418;2023-02-20T04:07:26;58.72;;;34.15;;
40755;SDS011;26461;45.630;9.418;2023-02-20T04:10:49;68.45;;;31.75;;
40755;SDS011;26461;45.630;9.418;2023-02-20T04:14:04;59.10;;;32.92;;
40755;SDS011;26461;45.630;9.418;2023-02-20T04:17:16;45.35;;;34.05;;
40755;SDS011;26461;45.630;9.418;2023-02-20T04:20:33;53.55;;;33.72;;
40755;SDS011;26461;45.630;9.418;2023-02-20T04:24:08;53.08;;;38.55;;
40755;SDS011;26461;45.630;9.418;2023-02-20T04:27:22;75.97;;;35.72;;
40755;SDS011;26461;45.630;9.418;2023-02-20T04:30:34;74.78;;;34.53;;
40755;SDS011;26461;45.630;9.418;2023-02-20T04:33:45;48.00;;;32.45;;
40755;SDS011;26461;45.630;9.418;2023-02-20T04:37:06;77.15;;;36.67;;
40755;SDS011;26461;45.630;9.418;2023-02-20T04:40:20;72.35;;;38.22;;
40755;SDS011;26461;45.630;9.418;2023-02-20T04:43:31;71.65;;;33.67;;
40755;SDS011;26461;45.630;9.418;2023-02-20T04:46:43;77.10;;;34.00;;
40755;SDS011;26461;45.630;9.418;2023-02-20T04:49:52;69.43;;;34.30;;
40755;SDS011;26461;45.630;9.418;2023-02-20T04:53:02;50.38;;;32.20;;
40755;SDS011;26461;45.630;9.418;2023-02-20T04:56:12;61.80;;;36.53;;
40755;SDS011;26461;45.630;9.418;2023-02-20T04:59:23;62.90;;;34.65;;
40755;SDS011;26461;45.630;9.418;2023-02-20T05:02:34;42.72;;;29.17;;
40755;SDS011;26461;45.630;9.418;2023-02-20T05:05:45;56.80;;;33.38;;
40755;SDS011;26461;45.630;9.418;2023-02-20T05:08:55;55.75;;;32.65;;
40755;SDS011;26461;45.630;9.418;2023-02-20T05:12:05;58.75;;;34.17;;
40755;SDS011;26461;45.630;9.418;2023-02-20T05:15:14;68.90;;;31.52;;
40755;SDS011;26461;45.630;9.418;2023-02-20T05:18:26;55.25;;;31.98;;
40755;SDS011;26461;45.630;9.418;2023-02-20T05:21:37;69.88;;;31.08;;
40755;SDS011;26461;45.630;9.418;2023-02-20T05:25:08;61.78;;;32.65;;
40755;SDS011;26461;45.630;9.418;2023-02-20T05:28:18;51.42;;;31.50;;
40755;SDS011;26461;45.630;9.418;2023-02-20T05:31:28;57.45;;;31.60;;
40755;SDS011;26461;45.630;9.418;2023-02-20T05:34:37;54.55;;;29.75;;
40755;SDS011;26461;45.630;9.418;2023-02-20T05:37:47;47.63;;;31.88;;
40755;SDS011;26461;45.630;9.418;2023-02-20T05:40:57;67.40;;;35.08;;
40755;SDS011;26461;45.630;9.418;2023-02-20T05:44:07;52.88;;;30.40;;
40755;SDS011;26461;45.630;9.418;2023-02-20T05:47:17;46.65;;;30.23;;
40755;SDS011;26461;45.630;9.418;2023-02-20T05:50:26;52.78;;;27.48;;
40755;SDS011;26461;45.630;9.418;2023-02-20T05:53:36;57.17;;;30.85;;
40755;SDS011;26461;45.630;9.418;2023-02-20T05:56:46;50.45;;;30.02;;
40755;SDS011;26461;45.630;9.418;2023-02-20T05:59:56;59.38;;;34.25;;
40755;SDS011;26461;45.630;9.418;2023-02-20T06:03:15;71.85;;;35.17;;
40755;SDS011;26461;45.630;9.418;2023-02-20T06:06:33;71.43;;;38.47;;
40755;SDS011;26461;45.630;9.418;2023-02-20T06:09:47;59.22;;;35.70;;
40755;SDS011;26461;45.630;9.418;2023-02-20T06:12:58;76.20;;;35.95;;
40755;SDS011;26461;45.630;9.418;2023-02-20T06:16:08;54.95;;;32.35;;
40755;SDS011;26461;45.630;9.418;2023-02-20T06:19:19;47.17;;;33.63;;
40755;SDS011;26461;45.630;9.418;2023-02-20T06:22:30;63.92;;;36.00;;
40755;SDS011;26461;45.630;9.418;2023-02-20T06:25:35;76.90;;;38.25;;
40755;SDS011;26461;45.630;9.418;2023-02-20T06:28:45;69.05;;;39.13;;
40755;SDS011;26461;45.630;9.418;2023-02-20T06:31:58;93.75;;;45.67;;
40755;SDS011;26461;45.630;9.418;2023-02-20T06:35:09;82.78;;;38.63;;
40755;SDS011;26461;45.630;9.418;2023-02-20T06:38:18;64.38;;;36.05;;
40755;SDS011;26461;45.630;9.418;2023-02-20T06:41:28;60.88;;;38.95;;
40755;SDS011;26461;45.630;9.418;2023-02-20T06:44:38;70.18;;;37.42;;
40755;SDS011;26461;45.630;9.418;2023-02-20T06:47:48;61.65;;;38.15;;
40755;SDS011;26461;45.630;9.418;2023-02-20T06:50:58;89.45;;;39.67;;
40755;SDS011;26461;45.630;9.418;2023-02-20T06:54:09;68.75;;;37.45;;
40755;SDS011;26461;45.630;9.418;2023-02-20T06:57:20;70.40;;;42.10;;
40755;SDS011;26461;45.630;9.418;2023-02-20T07:00:30;63.53;;;39.88;;
40755;SDS011;26461;45.630;9.418;2023-02-20T07:03:41;58.95;;;40.53;;
40755;SDS011;26461;45.630;9.418;2023-02-20T07:06:53;70.30;;;39.45;;
40755;SDS011;26461;45.630;9.418;2023-02-20T07:10:03;69.32;;;39.15;;
40755;SDS011;26461;45.630;9.418;2023-02-20T07:13:14;77.80;;;43.35;;
40755;SDS011;26461;45.630;9.418;2023-02-20T07:16:24;60.92;;;40.03;;
40755;SDS011;26461;45.630;9.418;2023-02-20T07:19:29;69.80;;;38.55;;
40755;SDS011;26461;45.630;9.418;2023-02-20T07:22:39;55.85;;;36.88;;
40755;SDS011;26461;45.630;9.418;2023-02-20T07:25:58;87.65;;;44.42;;
40755;SDS011;26461;45.630;9.418;2023-02-20T07:29:08;80.32;;;44.03;;
40755;SDS011;26461;45.630;9.418;2023-02-20T07:32:18;67.30;;;35.03;;
40755;SDS011;26461;45.630;9.418;2023-02-20T07:35:28;68.63;;;39.42;;
40755;SDS011;26461;45.630;9.418;2023-02-20T07:38:41;65.10;;;35.80;;
40755;SDS011;26461;45.630;9.418;2023-02-20T07:41:51;57.50;;;36.13;;
40755;SDS011;26461;45.630;9.418;2023-02-20T07:45:30;76.20;;;41.42;;
40755;SDS011;26461;45.630;9.418;2023-02-20T07:48:40;81.35;;;40.60;;
40755;SDS011;26461;45.630;9.418;2023-02-20T07:51:50;63.95;;;35.20;;
40755;SDS011;26461;45.630;9.418;2023-02-20T07:55:00;73.35;;;38.35;;
40755;SDS011;26461;45.630;9.418;2023-02-20T07:58:10;64.03;;;39.72;;
40755;SDS011;26461;45.630;9.418;2023-02-20T08:01:20;60.00;;;36.00;;
40755;SDS011;26461;45.630;9.418;2023-02-20T08:04:30;71.63;;;34.75;;
40755;SDS011;26461;45.630;9.418;2023-02-20T08:07:46;62.65;;;38.15;;
40755;SDS011;26461;45.630;9.418;2023-02-20T08:10:57;75.05;;;35.30;;
40755;SDS011;26461;45.630;9.418;2023-02-20T08:14:03;63.22;;;38.92;;
40755;SDS011;26461;45.630;9.418;2023-02-20T08:17:13;63.50;;;37.67;;
40755;SDS011;26461;45.630;9.418;2023-02-20T08:20:23;72.80;;;42.83;;
40755;SDS011;26461;45.630;9.418;2023-02-20T08:23:33;67.05;;;34.90;;
40755;SDS011;26461;45.630;9.418;2023-02-20T08:26:43;42.10;;;29.02;;
40755;SDS011;26461;45.630;9.418;2023-02-20T08:29:54;50.97;;;33.65;;
40755;SDS011;26461;45.630;9.418;2023-02-20T08:33:04;66.68;;;34.20;;
40755;SDS011;26461;45.630;9.418;2023-02-20T08:36:14;53.88;;;31.73;;
40755;SDS011;26461;45.630;9.418;2023-02-20T08:39:27;51.85;;;34.78;;
40755;SDS011;26461;45.630;9.418;2023-02-20T08:42:36;70.22;;;36.85;;
40755;SDS011;26461;45.630;9.418;2023-02-20T08:45:46;63.33;;;29.02;;
40755;SDS011;26461;45.630;9.418;2023-02-20T08:48:56;46.33;;;29.70;;
40755;SDS011;26461;45.630;9.418;2023-02-20T08:52:06;59.08;;;31.00;;
40755;SDS011;26461;45.630;9.418;2023-02-20T08:55:16;62.63;;;34.97;;
40755;SDS011;26461;45.630;9.418;2023-02-20T08:58:21;33.95;;;25.52;;
40755;SDS011;26461;45.630;9.418;2023-02-20T09:01:27;49.42;;;34.50;;
40755;SDS011;26461;45.630;9.418;2023-02-20T09:04:37;52.53;;;30.83;;
40755;SDS011;26461;45.630;9.418;2023-02-20T09:07:47;40.35;;;26.42;;
40755;SDS011;26461;45.630;9.418;2023-02-20T09:10:57;54.00;;;30.17;;
40755;SDS011;26461;45.630;9.418;2023-02-20T09:14:07;59.58;;;35.90;;
40755;SDS011;26461;45.630;9.418;2023-02-20T09:17:18;47.78;;;27.90;;
40755;SDS011;26461;45.630;9.418;2023-02-20T09:20:28;55.92;;;30.58;;
40755;SDS011;26461;45.630;9.418;2023-02-20T09:23:38;71.43;;;32.40;;
40755;SDS011;26461;45.630;9.418;2023-02-20T09:26:47;50.92;;;26.95;;
40755;SDS011;26461;45.630;9.418;2023-02-20T09:29:57;46.88;;;30.10;;
40755;SDS011;26461;45.630;9.418;2023-02-20T09:33:07;45.83;;;29.42;;
40755;SDS011;26461;45.630;9.418;2023-02-20T09:36:18;64.07;;;29.60;;
40755;SDS011;26461;45.630;9.418;2023-02-20T09:39:29;53.47;;;34.08;;
40755;SDS011;26461;45.630;9.418;2023-02-20T09:46:14;56.08;;;29.02;;
40755;SDS011;26461;45.630;9.418;2023-02-20T09:49:26;41.38;;;24.25;;
40755;SDS011;26461;45.630;9.418;2023-02-20T09:52:43;49.78;;;30.20;;
40755;SDS011;26461;45.630;9.418;2023-02-20T09:56:09;65.25;;;29.83;;
40755;SDS011;26461;45.630;9.418;2023-02-20T09:59:23;42.95;;;27.83;;
40755;SDS011;26461;45.630;9.418;2023-02-20T10:02:49;55.50;;;31.40;;
40755;SDS011;26461;45.630;9.418;2023-02-20T10:06:26;47.20;;;26.42;;
40755;SDS011;26461;45.630;9.418;2023-02-20T10:09:38;57.95;;;28.95;;
40755;SDS011;26461;45.630;9.418;2023-02-20T10:23:13;59.65;;;33.38;;
40755;SDS011;26461;45.630;9.418;2023-02-20T10:26:46;59.55;;;35.45;;
40755;SDS011;26461;45.630;9.418;2023-02-20T10:30:02;38.38;;;23.40;;
40755;SDS011;26461;45.630;9.418;2023-02-20T10:36:29;49.65;;;29.98;;
40755;SDS011;26461;45.630;9.418;2023-02-20T10:39:59;69.78;;;36.72;;
40755;SDS011;26461;45.630;9.418;2023-02-20T10:43:21;64.03;;;33.35;;
40755;SDS011;26461;45.630;9.418;2023-02-20T10:46:44;41.38;;;26.40;;
40755;SDS011;26461;45.630;9.418;2023-02-20T10:57:24;51.70;;;24.13;;
40755;SDS011;26461;45.630;9.418;2023-02-20T11:00:47;49.00;;;29.27;;
40755;SDS011;26461;45.630;9.418;2023-02-20T11:04:18;36.70;;;27.50;;
40755;SDS011;26461;45.630;9.418;2023-02-20T11:07:38;50.35;;;28.83;;
40755;SDS011;26461;45.630;9.418;2023-02-20T11:10:48;50.25;;;27.40;;
40755;SDS011;26461;45.630;9.418;2023-02-20T11:14:08;41.20;;;26.02;;
40755;SDS011;26461;45.630;9.418;2023-02-20T11:17:24;52.17;;;25.33;;
40755;SDS011;26461;45.630;9.418;2023-02-20T11:20:37;56.03;;;29.90;;
40755;SDS011;26461;45.630;9.418;2023-02-20T11:23:55;41.17;;;24.92;;
40755;SDS011;26461;45.630;9.418;2023-02-20T11:30:29;38.08;;;23.23;;
40755;SDS011;26461;45.630;9.418;2023-02-20T11:33:42;52.10;;;29.05;;
40755;SDS011;26461;45.630;9.418;2023-02-20T11:37:03;35.92;;;21.30;;
40755;SDS011;26461;45.630;9.418;2023-02-20T11:40:28;49.03;;;28.92;;
40755;SDS011;26461;45.630;9.418;2023-02-20T11:43:41;57.85;;;26.75;;
40755;SDS011;26461;45.630;9.418;2023-02-20T11:47:07;35.92;;;23.50;;
40755;SDS011;26461;45.630;9.418;2023-02-20T11:50:42;46.60;;;23.35;;
40755;SDS011;26461;45.630;9.418;2023-02-20T11:57:33;57.67;;;28.50;;
40755;SDS011;26461;45.630;9.418;2023-02-20T12:00:45;31.50;;;23.55;;
40755;SDS011;26461;45.630;9.418;2023-02-20T12:03:55;49.63;;;29.55;;
40755;SDS011;26461;45.630;9.418;2023-02-20T12:07:03;47.72;;;27.95;;
40755;SDS011;26461;45.630;9.418;2023-02-20T12:10:47;52.58;;;32.50;;
40755;SDS011;26461;45.630;9.418;2023-02-20T12:14:05;48.85;;;32.83;;
40755;SDS011;26461;45.630;9.418;2023-02-20T12:20:44;63.55;;;28.08;;
40755;SDS011;26461;45.630;9.418;2023-02-20T12:37:37;55.10;;;26.88;;
40755;SDS011;26461;45.630;9.418;2023-02-20T12:48:20;36.60;;;26.60;;
40755;SDS011;26461;45.630;9.418;2023-02-20T12:51:41;50.13;;;29.73;;
40755;SDS011;26461;45.630;9.418;2023-02-20T12:58:50;62.72;;;31.65;;
40755;SDS011;26461;45.630;9.418;2023-02-20T13:02:14;50.67;;;28.30;;
40755;SDS011;26461;45.630;9.418;2023-02-20T13:05:42;50.60;;;30.50;;
40755;SDS011;26461;45.630;9.418;2023-02-20T13:08:55;38.38;;;22.25;;
40755;SDS011;26461;45.630;9.418;2023-02-20T13:12:09;39.40;;;23.27;;
40755;SDS011;26461;45.630;9.418;2023-02-20T13:19:02;48.70;;;24.00;;
40755;SDS011;26461;45.630;9.418;2023-02-20T13:22:24;42.17;;;21.92;;
40755;SDS011;26461;45.630;9.418;2023-02-20T13:28:50;47.95;;;27.75;;
40755;SDS011;26461;45.630;9.418;2023-02-20T13:31:59;36.92;;;21.48;;
40755;SDS011;26461;45.630;9.418;2023-02-20T13:42:33;50.70;;;24.27;;
40755;SDS011;26461;45.630;9.418;2023-02-20T13:45:44;40.20;;;23.73;;
40755;SDS011;26461;45.630;9.418;2023-02-20T13:48:50;47.42;;;24.38;;
40755;SDS011;26461;45.630;9.418;2023-02-20T13:52:04;36.25;;;27.27;;
40755;SDS011;26461;45.630;9.418;2023-02-20T13:55:40;45.80;;;27.27;;
40755;SDS011;26461;45.630;9.418;2023-02-20T13:58:50;39.88;;;25.60;;
40755;SDS011;26461;45.630;9.418;2023-02-20T14:13:11;56.20;;;28.23;;
40755;SDS011;26461;45.630;9.418;2023-02-20T14:16:23;46.45;;;29.50;;
40755;SDS011;26461;45.630;9.418;2023-02-20T14:19:41;63.00;;;30.08;;
40755;SDS011;26461;45.630;9.418;2023-02-20T14:23:06;48.92;;;29.58;;
40755;SDS011;26461;45.630;9.418;2023-02-20T14:26:41;53.78;;;31.63;;
40755;SDS011;26461;45.630;9.418;2023-02-20T14:33:23;55.20;;;30.88;;
40755;SDS011;26461;45.630;9.418;2023-02-20T14:43:23;48.85;;;29.95;;
40755;SDS011;26461;45.630;9.418;2023-02-20T14:46:35;51.92;;;31.08;;
40755;SDS011;26461;45.630;9.418;2023-02-20T14:49:43;50.83;;;27.85;;
40755;SDS011;26461;45.630;9.418;2023-02-20T14:56:21;50.88;;;30.95;;
40755;SDS011;26461;45.630;9.418;2023-02-20T14:59:34;63.15;;;33.33;;
40755;SDS011;26461;45.630;9.418;2023-02-20T15:02:49;49.30;;;26.23;;
40755;SDS011;26461;45.630;9.418;2023-02-20T15:06:01;34.80;;;23.58;;
40755;SDS011;26461;45.630;9.418;2023-02-20T15:09:16;61.33;;;29.75;;
40755;SDS011;26461;45.630;9.418;2023-02-20T15:16:30;41.92;;;24.17;;
40755;SDS011;26461;45.630;9.418;2023-02-20T15:19:43;41.70;;;27.38;;
40755;SDS011;26461;45.630;9.418;2023-02-20T15:22:52;42.55;;;26.33;;
40755;SDS011;26461;45.630;9.418;2023-02-20T15:26:36;38.53;;;28.10;;
40755;SDS011;26461;45.630;9.418;2023-02-20T15:29:41;44.20;;;25.80;;
40755;SDS011;26461;45.630;9.418;2023-02-20T15:32:56;50.70;;;30.50;;
40755;SDS011;26461;45.630;9.418;2023-02-20T15:36:02;48.13;;;30.65;;
40755;SDS011;26461;45.630;9.418;2023-02-20T15:39:08;58.08;;;32.03;;
40755;SDS011;26461;45.630;9.418;2023-02-20T15:42:18;51.83;;;30.85;;
40755;SDS011;26461;45.630;9.418;2023-02-20T15:45:25;50.58;;;31.02;;
40755;SDS011;26461;45.630;9.418;2023-02-20T15:48:33;43.75;;;24.25;;
40755;SDS011;26461;45.630;9.418;2023-02-20T15:55:27;44.00;;;19.73;;
40755;SDS011;26461;45.630;9.418;2023-02-20T15:58:39;62.88;;;31.33;;
40755;SDS011;26461;45.630;9.418;2023-02-20T16:01:46;53.80;;;25.63;;
40755;SDS011;26461;45.630;9.418;2023-02-20T16:04:56;46.15;;;26.27;;
40755;SDS011;26461;45.630;9.418;2023-02-20T16:08:06;26.17;;;20.15;;
40755;SDS011;26461;45.630;9.418;2023-02-20T16:11:17;44.15;;;25.95;;
40755;SDS011;26461;45.630;9.418;2023-02-20T16:14:30;34.10;;;25.38;;
40755;SDS011;26461;45.630;9.418;2023-02-20T16:17:35;24.85;;;23.63;;
40755;SDS011;26461;45.630;9.418;2023-02-20T16:20:46;39.05;;;21.88;;
40755;SDS011;26461;45.630;9.418;2023-02-20T16:23:56;43.05;;;23.52;;
40755;SDS011;26461;45.630;9.418;2023-02-20T16:27:08;42.55;;;26.33;;
40755;SDS011;26461;45.630;9.418;2023-02-20T16:30:30;43.83;;;29.75;;
40755;SDS011;26461;45.630;9.418;2023-02-20T16:33:44;28.60;;;19.35;;
40755;SDS011;26461;45.630;9.418;2023-02-20T16:36:54;42.00;;;22.63;;
40755;SDS011;26461;45.630;9.418;2023-02-20T16:40:06;42.63;;;25.60;;
40755;SDS011;26461;45.630;9.418;2023-02-20T16:43:16;30.48;;;24.30;;
40755;SDS011;26461;45.630;9.418;2023-02-20T16:46:25;39.50;;;26.00;;
40755;SDS011;26461;45.630;9.418;2023-02-20T16:49:35;42.67;;;24.85;;
40755;SDS011;26461;45.630;9.418;2023-02-20T16:52:47;41.75;;;24.85;;
40755;SDS011;26461;45.630;9.418;2023-02-20T16:56:02;50.40;;;27.45;;
40755;SDS011;26461;45.630;9.418;2023-02-20T16:59:15;31.83;;;24.13;;
40755;SDS011;26461;45.630;9.418;2023-02-20T17:02:27;40.15;;;23.05;;
40755;SDS011;26461;45.630;9.418;2023-02-20T17:05:35;46.42;;;29.85;;
40755;SDS011;26461;45.630;9.418;2023-02-20T17:08:42;38.75;;;26.20;;
40755;SDS011;26461;45.630;9.418;2023-02-20T17:11:47;42.65;;;26.27;;
40755;SDS011;26461;45.630;9.418;2023-02-20T17:14:52;41.47;;;25.02;;
40755;SDS011;26461;45.630;9.418;2023-02-20T17:18:03;33.55;;;27.20;;
40755;SDS011;26461;45.630;9.418;2023-02-20T17:21:13;44.63;;;21.67;;
40755;SDS011;26461;45.630;9.418;2023-02-20T17:24:23;37.47;;;22.92;;
40755;SDS011;26461;45.630;9.418;2023-02-20T17:27:37;44.95;;;25.42;;
40755;SDS011;26461;45.630;9.418;2023-02-20T17:30:47;58.80;;;24.92;;
40755;SDS011;26461;45.630;9.418;2023-02-20T17:33:57;48.30;;;25.50;;
40755;SDS011;26461;45.630;9.418;2023-02-20T17:37:02;56.35;;;24.48;;
40755;SDS011;26461;45.630;9.418;2023-02-20T17:40:14;46.70;;;25.38;;
40755;SDS011;26461;45.630;9.418;2023-02-20T17:43:24;59.67;;;33.97;;
40755;SDS011;26461;45.630;9.418;2023-02-20T17:46:34;41.00;;;27.50;;
40755;SDS011;26461;45.630;9.418;2023-02-20T17:49:47;48.13;;;25.98;;
40755;SDS011;26461;45.630;9.418;2023-02-20T17:52:58;49.83;;;27.40;;
40755;SDS011;26461;45.630;9.418;2023-02-20T17:56:11;47.97;;;26.30;;
40755;SDS011;26461;45.630;9.418;2023-02-20T17:59:17;45.42;;;27.20;;
40755;SDS011;26461;45.630;9.418;2023-02-20T18:02:22;41.63;;;26.40;;
40755;SDS011;26461;45.630;9.418;2023-02-20T18:05:30;70.65;;;32.33;;
40755;SDS011;26461;45.630;9.418;2023-02-20T18:08:40;56.40;;;32.55;;
40755;SDS011;26461;45.630;9.418;2023-02-20T18:11:46;41.05;;;26.13;;
40755;SDS011;26461;45.630;9.418;2023-02-20T18:14:53;58.08;;;30.85;;
40755;SDS011;26461;45.630;9.418;2023-02-20T18:17:58;43.72;;;29.33;;
40755;SDS011;26461;45.630;9.418;2023-02-20T18:21:18;41.45;;;28.58;;
40755;SDS011;26461;45.630;9.418;2023-02-20T18:24:24;38.58;;;26.70;;
40755;SDS011;26461;45.630;9.418;2023-02-20T18:27:29;49.17;;;24.52;;
40755;SDS011;26461;45.630;9.418;2023-02-20T18:30:39;64.63;;;27.42;;
40755;SDS011;26461;45.630;9.418;2023-02-20T18:33:52;51.80;;;28.85;;
40755;SDS011;26461;45.630;9.418;2023-02-20T18:37:03;53.13;;;29.83;;
40755;SDS011;26461;45.630;9.418;2023-02-20T18:40:08;44.58;;;32.08;;
40755;SDS011;26461;45.630;9.418;2023-02-20T18:43:16;42.53;;;24.88;;
40755;SDS011;26461;45.630;9.418;2023-02-20T18:50:02;46.38;;;29.38;;
40755;SDS011;26461;45.630;9.418;2023-02-20T18:53:08;56.42;;;31.05;;
40755;SDS011;26461;45.630;9.418;2023-02-20T18:56:18;51.88;;;28.90;;
40755;SDS011;26461;45.630;9.418;2023-02-20T18:59:31;52.00;;;31.27;;
40755;SDS011;26461;45.630;9.418;2023-02-20T19:02:48;51.97;;;32.10;;
40755;SDS011;26461;45.630;9.418;2023-02-20T19:05:58;54.30;;;30.70;;
40755;SDS011;26461;45.630;9.418;2023-02-20T19:09:09;67.93;;;37.30;;
40755;SDS011;26461;45.630;9.418;2023-02-20T19:12:29;58.97;;;33.28;;
40755;SDS011;26461;45.630;9.418;2023-02-20T19:15:39;56.22;;;35.30;;
40755;SDS011;26461;45.630;9.418;2023-02-20T19:18:49;55.65;;;31.17;;
40755;SDS011;26461;45.630;9.418;2023-02-20T19:21:59;77.80;;;34.38;;
40755;SDS011;26461;45.630;9.418;2023-02-20T19:25:10;52.67;;;29.17;;
40755;SDS011;26461;45.630;9.418;2023-02-20T19:31:53;55.95;;;34.60;;
40755;SDS011;26461;45.630;9.418;2023-02-20T19:38:41;51.67;;;31.27;;
40755;SDS011;26461;45.630;9.418;2023-02-20T19:41:48;38.90;;;30.60;;
40755;SDS011;26461;45.630;9.418;2023-02-20T19:44:58;42.00;;;34.17;;
40755;SDS011;26461;45.630;9.418;2023-02-20T19:48:09;55.78;;;31.08;;
40755;SDS011;26461;45.630;9.418;2023-02-20T19:51:15;44.97;;;30.88;;
40755;SDS011;26461;45.630;9.418;2023-02-20T19:54:28;65.15;;;35.20;;
40755;SDS011;26461;45.630;9.418;2023-02-20T19:57:34;57.00;;;35.33;;
40755;SDS011;26461;45.630;9.418;2023-02-20T20:00:44;51.28;;;31.58;;
40755;SDS011;26461;45.630;9.418;2023-02-20T20:03:49;52.63;;;33.67;;
40755;SDS011;26461;45.630;9.418;2023-02-20T20:07:00;65.03;;;37.40;;
40755;SDS011;26461;45.630;9.418;2023-02-20T20:10:12;59.75;;;35.10;;
40755;SDS011;26461;45.630;9.418;2023-02-20T20:13:23;71.97;;;38.75;;
40755;SDS011;26461;45.630;9.418;2023-02-20T20:16:34;56.42;;;36.17;;
40755;SDS011;26461;45.630;9.418;2023-02-20T20:19:48;56.10;;;35.17;;
40755;SDS011;26461;45.630;9.418;2023-02-20T20:23:03;61.90;;;33.88;;
40755;SDS011;26461;45.630;9.418;2023-02-20T20:26:14;52.30;;;35.85;;
40755;SDS011;26461;45.630;9.418;2023-02-20T20:29:25;55.00;;;35.65;;
40755;SDS011;26461;45.630;9.418;2023-02-20T20:32:30;44.22;;;32.25;;
40755;SDS011;26461;45.630;9.418;2023-02-20T20:35:40;49.20;;;33.60;;
40755;SDS011;26461;45.630;9.418;2023-02-20T20:38:52;40.08;;;33.15;;
40755;SDS011;26461;45.630;9.418;2023-02-20T20:42:02;46.67;;;32.15;;
40755;SDS011;26461;45.630;9.418;2023-02-20T20:45:13;71.32;;;31.95;;
40755;SDS011;26461;45.630;9.418;2023-02-20T20:48:24;62.88;;;35.42;;
40755;SDS011;26461;45.630;9.418;2023-02-20T20:51:35;61.88;;;38.40;;
40755;SDS011;26461;45.630;9.418;2023-02-20T20:54:47;46.63;;;31.83;;
40755;SDS011;26461;45.630;9.418;2023-02-20T20:57:57;52.58;;;34.25;;
40755;SDS011;26461;45.630;9.418;2023-02-20T21:01:04;67.57;;;40.63;;
40755;SDS011;26461;45.630;9.418;2023-02-20T21:04:10;74.78;;;41.92;;
40755;SDS011;26461;45.630;9.418;2023-02-20T21:07:20;94.43;;;51.13;;
40755;SDS011;26461;45.630;9.418;2023-02-20T21:10:33;62.42;;;43.95;;
40755;SDS011;26461;45.630;9.418;2023-02-20T21:13:46;80.32;;;46.22;;
40755;SDS011;26461;45.630;9.418;2023-02-20T21:16:51;77.78;;;42.40;;
40755;SDS011;26461;45.630;9.418;2023-02-20T21:19:57;67.85;;;41.47;;
40755;SDS011;26461;45.630;9.418;2023-02-20T21:23:08;70.75;;;37.47;;